sensor_id;sensor_type;location;lat;lon;timestamp;P1;durP1;ratioP1;P2;durP2;ratioP2
72132;SDS011;60008;50.826;6.896;2023-05-10T00:01:51;5.43;;;3.38;;
72132;SDS011;60008;50.826;6.896;2023-05-10T00:04:36;7.20;;;3.83;;
72132;SDS011;60008;50.826;6.896;2023-05-10T00:07:21;7.90;;;4.17;;
72132;SDS011;60008;50.826;6.896;2023-05-10T00:10:06;7.05;;;3.90;;
72132;SDS011;60008;50.826;6.896;2023-05-10T00:12:51;7.90;;;4.13;;
72132;SDS011;60008;50.826;6.896;2023-05-10T00:15:36;8.57;;;4.43;;
72132;SDS011;60008;50.826;6.896;2023-05-10T00:18:21;8.85;;;4.20;;
72132;SDS011;60008;50.826;6.896;2023-05-10T00:21:06;8.00;;;4.33;;
72132;SDS011;60008;50.826;6.896;2023-05-10T00:23:51;10.48;;;4.38;;
72132;SDS011;60008;50.826;6.896;2023-05-10T00:26:36;8.32;;;4.65;;
72132;SDS011;60008;50.826;6.896;2023-05-10T00:29:21;7.80;;;4.38;;
72132;SDS011;60008;50.826;6.896;2023-05-10T00:32:06;7.93;;;4.30;;
72132;SDS011;60008;50.826;6.896;2023-05-10T00:34:51;7.20;;;4.20;;
72132;SDS011;60008;50.826;6.896;2023-05-10T00:37:35;8.15;;;4.47;;
72132;SDS011;60008;50.826;6.896;2023-05-10T00:40:21;8.25;;;4.68;;
72132;SDS011;60008;50.826;6.896;2023-05-10T00:43:05;8.07;;;4.25;;
72132;SDS011;60008;50.826;6.896;2023-05-10T00:45:51;8.70;;;4.03;;
72132;SDS011;60008;50.826;6.896;2023-05-10T00:48:37;6.63;;;3.67;;
72132;SDS011;60008;50.826;6.896;2023-05-10T00:51:21;9.20;;;3.83;;
72132;SDS011;60008;50.826;6.896;2023-05-10T00:54:06;6.75;;;3.50;;
72132;SDS011;60008;50.826;6.896;2023-05-10T00:56:52;6.05;;;3.33;;
72132;SDS011;60008;50.826;6.896;2023-05-10T00:59:37;6.82;;;3.70;;
72132;SDS011;60008;50.826;6.896;2023-05-10T01:02:22;5.63;;;3.20;;
72132;SDS011;60008;50.826;6.896;2023-05-10T01:05:07;8.43;;;3.53;;
72132;SDS011;60008;50.826;6.896;2023-05-10T01:07:53;6.53;;;3.30;;
72132;SDS011;60008;50.826;6.896;2023-05-10T01:10:38;7.55;;;2.95;;
72132;SDS011;60008;50.826;6.896;2023-05-10T01:13:33;5.45;;;3.17;;
72132;SDS011;60008;50.826;6.896;2023-05-10T01:16:20;7.10;;;3.03;;
72132;SDS011;60008;50.826;6.896;2023-05-10T01:19:06;6.07;;;3.17;;
72132;SDS011;60008;50.826;6.896;2023-05-10T01:23:07;5.18;;;2.83;;
72132;SDS011;60008;50.826;6.896;2023-05-10T01:31:35;5.67;;;2.83;;
72132;SDS011;60008;50.826;6.896;2023-05-10T01:34:35;4.90;;;2.75;;
72132;SDS011;60008;50.826;6.896;2023-05-10T01:37:43;5.53;;;1.90;;
72132;SDS011;60008;50.826;6.896;2023-05-10T01:40:58;5.30;;;2.45;;
72132;SDS011;60008;50.826;6.896;2023-05-10T01:46:58;4.63;;;2.20;;
72132;SDS011;60008;50.826;6.896;2023-05-10T01:49:49;4.22;;;1.90;;
72132;SDS011;60008;50.826;6.896;2023-05-10T01:52:37;5.22;;;2.35;;
72132;SDS011;60008;50.826;6.896;2023-05-10T01:55:27;3.95;;;2.10;;
72132;SDS011;60008;50.826;6.896;2023-05-10T01:58:17;3.70;;;1.88;;
72132;SDS011;60008;50.826;6.896;2023-05-10T02:01:05;4.13;;;2.07;;
72132;SDS011;60008;50.826;6.896;2023-05-10T02:03:53;5.68;;;2.13;;
72132;SDS011;60008;50.826;6.896;2023-05-10T02:06:40;4.97;;;2.47;;
72132;SDS011;60008;50.826;6.896;2023-05-10T02:09:27;4.85;;;2.40;;
72132;SDS011;60008;50.826;6.896;2023-05-10T02:12:15;5.32;;;2.65;;
72132;SDS011;60008;50.826;6.896;2023-05-10T02:15:02;6.03;;;2.97;;
72132;SDS011;60008;50.826;6.896;2023-05-10T02:17:50;5.43;;;2.97;;
72132;SDS011;60008;50.826;6.896;2023-05-10T02:20:37;8.18;;;3.17;;
72132;SDS011;60008;50.826;6.896;2023-05-10T02:23:23;8.07;;;3.20;;
72132;SDS011;60008;50.826;6.896;2023-05-10T02:26:08;5.72;;;3.28;;
72132;SDS011;60008;50.826;6.896;2023-05-10T02:28:55;8.13;;;3.57;;
72132;SDS011;60008;50.826;6.896;2023-05-10T02:31:41;7.65;;;3.92;;
72132;SDS011;60008;50.826;6.896;2023-05-10T02:34:28;7.00;;;3.65;;
72132;SDS011;60008;50.826;6.896;2023-05-10T02:37:14;8.30;;;3.55;;
72132;SDS011;60008;50.826;6.896;2023-05-10T02:40:01;7.18;;;3.67;;
72132;SDS011;60008;50.826;6.896;2023-05-10T02:42:47;6.73;;;3.93;;
72132;SDS011;60008;50.826;6.896;2023-05-10T02:45:36;6.45;;;3.35;;
72132;SDS011;60008;50.826;6.896;2023-05-10T02:48:23;7.38;;;3.78;;
72132;SDS011;60008;50.826;6.896;2023-05-10T02:51:08;7.35;;;3.60;;
72132;SDS011;60008;50.826;6.896;2023-05-10T02:53:59;8.43;;;4.00;;
72132;SDS011;60008;50.826;6.896;2023-05-10T02:56:53;6.67;;;3.27;;
72132;SDS011;60008;50.826;6.896;2023-05-10T02:59:43;8.40;;;3.78;;
72132;SDS011;60008;50.826;6.896;2023-05-10T03:02:29;9.43;;;3.85;;
72132;SDS011;60008;50.826;6.896;2023-05-10T03:05:15;8.73;;;3.95;;
72132;SDS011;60008;50.826;6.896;2023-05-10T03:08:00;13.27;;;4.10;;
72132;SDS011;60008;50.826;6.896;2023-05-10T03:10:54;8.83;;;4.13;;
72132;SDS011;60008;50.826;6.896;2023-05-10T03:20:04;12.18;;;4.10;;
72132;SDS011;60008;50.826;6.896;2023-05-10T03:23:00;8.45;;;4.25;;
72132;SDS011;60008;50.826;6.896;2023-05-10T03:25:55;10.20;;;4.23;;
72132;SDS011;60008;50.826;6.896;2023-05-10T03:28:40;8.25;;;3.97;;
72132;SDS011;60008;50.826;6.896;2023-05-10T03:31:26;10.23;;;4.40;;
72132;SDS011;60008;50.826;6.896;2023-05-10T03:34:11;10.18;;;4.57;;
72132;SDS011;60008;50.826;6.896;2023-05-10T03:36:56;9.25;;;4.22;;
72132;SDS011;60008;50.826;6.896;2023-05-10T03:39:42;8.97;;;4.40;;
72132;SDS011;60008;50.826;6.896;2023-05-10T03:42:27;9.65;;;4.53;;
72132;SDS011;60008;50.826;6.896;2023-05-10T03:45:12;10.07;;;4.68;;
72132;SDS011;60008;50.826;6.896;2023-05-10T03:47:57;13.77;;;4.78;;
72132;SDS011;60008;50.826;6.896;2023-05-10T03:50:43;10.77;;;4.57;;
72132;SDS011;60008;50.826;6.896;2023-05-10T03:53:28;13.53;;;4.67;;
72132;SDS011;60008;50.826;6.896;2023-05-10T03:56:13;10.35;;;5.20;;
72132;SDS011;60008;50.826;6.896;2023-05-10T03:58:59;11.38;;;5.40;;
72132;SDS011;60008;50.826;6.896;2023-05-10T04:01:43;11.25;;;5.45;;
72132;SDS011;60008;50.826;6.896;2023-05-10T04:04:28;19.30;;;6.00;;
72132;SDS011;60008;50.826;6.896;2023-05-10T04:07:13;12.00;;;5.67;;
72132;SDS011;60008;50.826;6.896;2023-05-10T04:09:58;13.07;;;6.03;;
72132;SDS011;60008;50.826;6.896;2023-05-10T04:12:43;13.85;;;6.43;;
72132;SDS011;60008;50.826;6.896;2023-05-10T04:15:28;14.65;;;7.03;;
72132;SDS011;60008;50.826;6.896;2023-05-10T04:18:14;12.90;;;6.38;;
72132;SDS011;60008;50.826;6.896;2023-05-10T04:20:59;12.83;;;6.40;;
72132;SDS011;60008;50.826;6.896;2023-05-10T04:23:43;14.07;;;6.80;;
72132;SDS011;60008;50.826;6.896;2023-05-10T04:26:29;11.95;;;6.78;;
72132;SDS011;60008;50.826;6.896;2023-05-10T04:29:14;19.58;;;7.28;;
72132;SDS011;60008;50.826;6.896;2023-05-10T04:31:59;13.75;;;6.75;;
72132;SDS011;60008;50.826;6.896;2023-05-10T04:34:43;14.13;;;7.00;;
72132;SDS011;60008;50.826;6.896;2023-05-10T04:37:29;13.95;;;7.05;;
72132;SDS011;60008;50.826;6.896;2023-05-10T04:40:13;15.70;;;7.38;;
72132;SDS011;60008;50.826;6.896;2023-05-10T04:42:59;13.25;;;6.47;;
72132;SDS011;60008;50.826;6.896;2023-05-10T04:45:44;15.68;;;7.57;;
72132;SDS011;60008;50.826;6.896;2023-05-10T04:48:29;13.53;;;7.00;;
72132;SDS011;60008;50.826;6.896;2023-05-10T04:51:14;13.60;;;7.43;;
72132;SDS011;60008;50.826;6.896;2023-05-10T04:54:00;15.60;;;7.75;;
72132;SDS011;60008;50.826;6.896;2023-05-10T04:56:50;14.32;;;7.38;;
72132;SDS011;60008;50.826;6.896;2023-05-10T04:59:36;15.52;;;7.68;;
72132;SDS011;60008;50.826;6.896;2023-05-10T05:02:21;14.20;;;6.80;;
72132;SDS011;60008;50.826;6.896;2023-05-10T05:05:08;15.85;;;6.93;;
72132;SDS011;60008;50.826;6.896;2023-05-10T05:07:53;14.93;;;7.95;;
72132;SDS011;60008;50.826;6.896;2023-05-10T05:10:38;13.95;;;6.43;;
72132;SDS011;60008;50.826;6.896;2023-05-10T05:13:23;15.20;;;7.43;;
72132;SDS011;60008;50.826;6.896;2023-05-10T05:16:09;13.87;;;6.53;;
72132;SDS011;60008;50.826;6.896;2023-05-10T05:18:55;14.30;;;7.13;;
72132;SDS011;60008;50.826;6.896;2023-05-10T05:21:41;13.82;;;6.65;;
72132;SDS011;60008;50.826;6.896;2023-05-10T05:24:26;14.07;;;6.95;;
72132;SDS011;60008;50.826;6.896;2023-05-10T05:27:11;15.23;;;7.70;;
72132;SDS011;60008;50.826;6.896;2023-05-10T05:29:56;16.17;;;7.50;;
72132;SDS011;60008;50.826;6.896;2023-05-10T05:32:41;16.13;;;7.22;;
72132;SDS011;60008;50.826;6.896;2023-05-10T05:35:26;15.88;;;7.53;;
72132;SDS011;60008;50.826;6.896;2023-05-10T05:38:11;13.55;;;6.72;;
72132;SDS011;60008;50.826;6.896;2023-05-10T05:40:56;17.90;;;6.70;;
72132;SDS011;60008;50.826;6.896;2023-05-10T05:43:41;13.40;;;6.77;;
72132;SDS011;60008;50.826;6.896;2023-05-10T05:46:26;16.25;;;7.05;;
72132;SDS011;60008;50.826;6.896;2023-05-10T05:49:11;17.00;;;7.70;;
72132;SDS011;60008;50.826;6.896;2023-05-10T05:51:58;16.75;;;6.85;;
72132;SDS011;60008;50.826;6.896;2023-05-10T05:54:44;16.75;;;7.50;;
72132;SDS011;60008;50.826;6.896;2023-05-10T05:57:29;14.23;;;7.43;;
72132;SDS011;60008;50.826;6.896;2023-05-10T06:00:14;18.85;;;7.55;;
72132;SDS011;60008;50.826;6.896;2023-05-10T06:02:59;26.75;;;8.32;;
72132;SDS011;60008;50.826;6.896;2023-05-10T06:05:44;25.20;;;8.43;;
72132;SDS011;60008;50.826;6.896;2023-05-10T06:08:29;18.42;;;7.70;;
72132;SDS011;60008;50.826;6.896;2023-05-10T06:11:14;15.47;;;6.70;;
72132;SDS011;60008;50.826;6.896;2023-05-10T06:14:00;13.82;;;7.10;;
72132;SDS011;60008;50.826;6.896;2023-05-10T06:16:46;17.40;;;7.15;;
72132;SDS011;60008;50.826;6.896;2023-05-10T06:19:31;13.65;;;6.75;;
72132;SDS011;60008;50.826;6.896;2023-05-10T06:22:16;14.45;;;7.18;;
72132;SDS011;60008;50.826;6.896;2023-05-10T06:25:01;12.33;;;6.60;;
72132;SDS011;60008;50.826;6.896;2023-05-10T06:27:47;13.98;;;6.82;;
72132;SDS011;60008;50.826;6.896;2023-05-10T06:30:37;15.57;;;7.03;;
72132;SDS011;60008;50.826;6.896;2023-05-10T06:33:22;19.00;;;7.05;;
72132;SDS011;60008;50.826;6.896;2023-05-10T06:36:07;16.73;;;6.40;;
72132;SDS011;60008;50.826;6.896;2023-05-10T06:38:52;14.20;;;6.07;;
72132;SDS011;60008;50.826;6.896;2023-05-10T06:41:37;14.45;;;6.18;;
72132;SDS011;60008;50.826;6.896;2023-05-10T06:44:22;14.13;;;6.07;;
72132;SDS011;60008;50.826;6.896;2023-05-10T06:47:07;14.00;;;5.43;;
72132;SDS011;60008;50.826;6.896;2023-05-10T06:49:52;11.98;;;5.63;;
72132;SDS011;60008;50.826;6.896;2023-05-10T06:52:37;12.33;;;5.60;;
72132;SDS011;60008;50.826;6.896;2023-05-10T06:55:23;12.32;;;5.40;;
72132;SDS011;60008;50.826;6.896;2023-05-10T06:58:08;11.60;;;5.55;;
72132;SDS011;60008;50.826;6.896;2023-05-10T07:00:53;9.23;;;4.63;;
72132;SDS011;60008;50.826;6.896;2023-05-10T07:03:38;9.88;;;4.35;;
72132;SDS011;60008;50.826;6.896;2023-05-10T07:06:23;11.37;;;4.43;;
72132;SDS011;60008;50.826;6.896;2023-05-10T07:09:17;9.57;;;4.57;;
72132;SDS011;60008;50.826;6.896;2023-05-10T07:12:03;10.63;;;4.40;;
72132;SDS011;60008;50.826;6.896;2023-05-10T07:14:48;9.52;;;4.40;;
72132;SDS011;60008;50.826;6.896;2023-05-10T07:17:33;9.63;;;4.15;;
72132;SDS011;60008;50.826;6.896;2023-05-10T07:20:18;7.67;;;3.53;;
72132;SDS011;60008;50.826;6.896;2023-05-10T07:23:03;10.43;;;3.72;;
72132;SDS011;60008;50.826;6.896;2023-05-10T07:25:49;10.30;;;3.90;;
72132;SDS011;60008;50.826;6.896;2023-05-10T07:28:36;9.85;;;3.75;;
72132;SDS011;60008;50.826;6.896;2023-05-10T07:31:22;8.95;;;4.07;;
72132;SDS011;60008;50.826;6.896;2023-05-10T07:34:07;9.17;;;3.77;;
72132;SDS011;60008;50.826;6.896;2023-05-10T07:36:52;8.02;;;3.47;;
72132;SDS011;60008;50.826;6.896;2023-05-10T07:39:37;12.25;;;4.03;;
72132;SDS011;60008;50.826;6.896;2023-05-10T07:42:22;9.43;;;4.18;;
72132;SDS011;60008;50.826;6.896;2023-05-10T07:45:07;9.05;;;4.05;;
72132;SDS011;60008;50.826;6.896;2023-05-10T07:47:53;10.97;;;4.20;;
72132;SDS011;60008;50.826;6.896;2023-05-10T07:50:38;7.10;;;3.60;;
72132;SDS011;60008;50.826;6.896;2023-05-10T07:53:23;10.25;;;4.18;;
72132;SDS011;60008;50.826;6.896;2023-05-10T07:59:09;12.95;;;3.80;;
72132;SDS011;60008;50.826;6.896;2023-05-10T08:01:56;10.90;;;3.70;;
72132;SDS011;60008;50.826;6.896;2023-05-10T08:04:41;8.80;;;3.80;;
72132;SDS011;60008;50.826;6.896;2023-05-10T08:07:26;9.30;;;3.67;;
72132;SDS011;60008;50.826;6.896;2023-05-10T08:10:11;9.00;;;3.05;;
72132;SDS011;60008;50.826;6.896;2023-05-10T08:12:56;6.18;;;2.70;;
72132;SDS011;60008;50.826;6.896;2023-05-10T08:15:43;7.90;;;2.50;;
72132;SDS011;60008;50.826;6.896;2023-05-10T08:18:28;6.57;;;2.90;;
72132;SDS011;60008;50.826;6.896;2023-05-10T08:21:13;8.23;;;3.42;;
72132;SDS011;60008;50.826;6.896;2023-05-10T08:23:59;6.35;;;2.88;;
72132;SDS011;60008;50.826;6.896;2023-05-10T08:26:44;3.15;;;1.38;;
72132;SDS011;60008;50.826;6.896;2023-05-10T08:29:29;2.73;;;1.03;;
72132;SDS011;60008;50.826;6.896;2023-05-10T08:32:22;2.75;;;1.00;;
72132;SDS011;60008;50.826;6.896;2023-05-10T08:35:07;2.53;;;1.08;;
72132;SDS011;60008;50.826;6.896;2023-05-10T08:37:52;3.47;;;1.10;;
72132;SDS011;60008;50.826;6.896;2023-05-10T08:40:37;1.50;;;0.60;;
72132;SDS011;60008;50.826;6.896;2023-05-10T08:43:22;1.53;;;0.70;;
72132;SDS011;60008;50.826;6.896;2023-05-10T08:46:14;2.78;;;0.77;;
72132;SDS011;60008;50.826;6.896;2023-05-10T08:49:04;1.90;;;0.90;;
72132;SDS011;60008;50.826;6.896;2023-05-10T08:51:54;2.05;;;1.05;;
72132;SDS011;60008;50.826;6.896;2023-05-10T08:54:40;2.13;;;0.90;;
72132;SDS011;60008;50.826;6.896;2023-05-10T08:57:26;1.50;;;0.53;;
72132;SDS011;60008;50.826;6.896;2023-05-10T09:00:11;4.43;;;1.17;;
72132;SDS011;60008;50.826;6.896;2023-05-10T09:02:58;2.72;;;1.20;;
72132;SDS011;60008;50.826;6.896;2023-05-10T09:05:44;4.50;;;1.10;;
72132;SDS011;60008;50.826;6.896;2023-05-10T09:08:29;3.05;;;1.00;;
72132;SDS011;60008;50.826;6.896;2023-05-10T09:11:15;2.00;;;0.83;;
72132;SDS011;60008;50.826;6.896;2023-05-10T09:14:01;2.40;;;0.93;;
72132;SDS011;60008;50.826;6.896;2023-05-10T09:16:47;1.70;;;0.90;;
72132;SDS011;60008;50.826;6.896;2023-05-10T09:19:32;2.00;;;0.93;;
72132;SDS011;60008;50.826;6.896;2023-05-10T09:22:17;3.75;;;1.15;;
72132;SDS011;60008;50.826;6.896;2023-05-10T09:25:03;4.07;;;1.60;;
72132;SDS011;60008;50.826;6.896;2023-05-10T09:27:51;5.25;;;1.90;;
72132;SDS011;60008;50.826;6.896;2023-05-10T09:30:37;5.53;;;2.60;;
72132;SDS011;60008;50.826;6.896;2023-05-10T09:33:22;6.13;;;3.03;;
72132;SDS011;60008;50.826;6.896;2023-05-10T09:36:06;7.47;;;3.78;;
72132;SDS011;60008;50.826;6.896;2023-05-10T09:38:53;7.90;;;3.50;;
72132;SDS011;60008;50.826;6.896;2023-05-10T09:41:38;10.13;;;4.22;;
72132;SDS011;60008;50.826;6.896;2023-05-10T09:44:27;11.50;;;4.35;;
72132;SDS011;60008;50.826;6.896;2023-05-10T09:47:11;15.18;;;4.90;;
72132;SDS011;60008;50.826;6.896;2023-05-10T09:50:02;13.55;;;6.05;;
72132;SDS011;60008;50.826;6.896;2023-05-10T09:52:50;12.10;;;5.07;;
72132;SDS011;60008;50.826;6.896;2023-05-10T09:55:46;15.90;;;6.20;;
72132;SDS011;60008;50.826;6.896;2023-05-10T09:58:31;13.18;;;5.75;;
72132;SDS011;60008;50.826;6.896;2023-05-10T10:01:21;14.98;;;6.15;;
72132;SDS011;60008;50.826;6.896;2023-05-10T10:04:06;17.30;;;6.18;;
72132;SDS011;60008;50.826;6.896;2023-05-10T10:07:00;13.67;;;6.10;;
72132;SDS011;60008;50.826;6.896;2023-05-10T10:09:49;12.60;;;5.75;;
72132;SDS011;60008;50.826;6.896;2023-05-10T10:12:34;13.65;;;5.65;;
72132;SDS011;60008;50.826;6.896;2023-05-10T10:15:20;10.88;;;5.20;;
72132;SDS011;60008;50.826;6.896;2023-05-10T10:18:07;11.07;;;5.20;;
72132;SDS011;60008;50.826;6.896;2023-05-10T10:20:53;11.27;;;4.67;;
72132;SDS011;60008;50.826;6.896;2023-05-10T10:23:38;10.10;;;4.47;;
72132;SDS011;60008;50.826;6.896;2023-05-10T10:26:24;9.88;;;4.57;;
72132;SDS011;60008;50.826;6.896;2023-05-10T10:32:26;10.70;;;4.82;;
72132;SDS011;60008;50.826;6.896;2023-05-10T10:35:38;13.77;;;5.10;;
72132;SDS011;60008;50.826;6.896;2023-05-10T10:38:25;9.13;;;4.07;;
72132;SDS011;60008;50.826;6.896;2023-05-10T10:41:10;7.47;;;3.70;;
72132;SDS011;60008;50.826;6.896;2023-05-10T10:50:07;4.87;;;2.10;;
72132;SDS011;60008;50.826;6.896;2023-05-10T10:52:52;4.03;;;1.80;;
72132;SDS011;60008;50.826;6.896;2023-05-10T10:55:47;3.00;;;1.75;;
72132;SDS011;60008;50.826;6.896;2023-05-10T10:58:33;4.88;;;1.67;;
72132;SDS011;60008;50.826;6.896;2023-05-10T11:01:18;2.80;;;1.30;;
72132;SDS011;60008;50.826;6.896;2023-05-10T11:06:49;3.38;;;1.50;;
72132;SDS011;60008;50.826;6.896;2023-05-10T11:09:38;2.50;;;1.45;;
72132;SDS011;60008;50.826;6.896;2023-05-10T11:12:24;2.38;;;1.30;;
72132;SDS011;60008;50.826;6.896;2023-05-10T11:15:09;1.88;;;0.93;;
72132;SDS011;60008;50.826;6.896;2023-05-10T11:17:54;1.43;;;0.83;;
72132;SDS011;60008;50.826;6.896;2023-05-10T11:20:40;2.55;;;1.02;;
72132;SDS011;60008;50.826;6.896;2023-05-10T11:23:32;2.47;;;1.20;;
72132;SDS011;60008;50.826;6.896;2023-05-10T11:26:41;3.22;;;1.40;;
72132;SDS011;60008;50.826;6.896;2023-05-10T11:29:26;2.90;;;1.35;;
72132;SDS011;60008;50.826;6.896;2023-05-10T11:32:11;2.03;;;1.10;;
72132;SDS011;60008;50.826;6.896;2023-05-10T11:34:57;2.95;;;1.27;;
72132;SDS011;60008;50.826;6.896;2023-05-10T11:37:42;2.83;;;1.50;;
72132;SDS011;60008;50.826;6.896;2023-05-10T11:40:28;2.38;;;1.60;;
72132;SDS011;60008;50.826;6.896;2023-05-10T11:43:13;2.53;;;1.60;;
72132;SDS011;60008;50.826;6.896;2023-05-10T11:45:58;2.77;;;1.43;;
72132;SDS011;60008;50.826;6.896;2023-05-10T11:48:43;2.30;;;1.40;;
72132;SDS011;60008;50.826;6.896;2023-05-10T11:51:28;3.83;;;1.40;;
72132;SDS011;60008;50.826;6.896;2023-05-10T11:54:13;2.65;;;1.40;;
72132;SDS011;60008;50.826;6.896;2023-05-10T11:56:58;3.20;;;1.90;;
72132;SDS011;60008;50.826;6.896;2023-05-10T11:59:43;2.17;;;1.33;;
72132;SDS011;60008;50.826;6.896;2023-05-10T12:02:28;4.82;;;1.70;;
72132;SDS011;60008;50.826;6.896;2023-05-10T12:05:14;2.53;;;1.40;;
72132;SDS011;60008;50.826;6.896;2023-05-10T12:08:12;3.45;;;1.60;;
72132;SDS011;60008;50.826;6.896;2023-05-10T12:11:05;2.95;;;1.70;;
72132;SDS011;60008;50.826;6.896;2023-05-10T12:13:51;2.33;;;1.30;;
72132;SDS011;60008;50.826;6.896;2023-05-10T12:16:37;2.35;;;1.45;;
72132;SDS011;60008;50.826;6.896;2023-05-10T12:19:22;2.83;;;1.58;;
72132;SDS011;60008;50.826;6.896;2023-05-10T12:22:08;2.42;;;1.20;;
72132;SDS011;60008;50.826;6.896;2023-05-10T12:24:52;2.10;;;1.40;;
72132;SDS011;60008;50.826;6.896;2023-05-10T12:27:37;3.63;;;1.20;;
72132;SDS011;60008;50.826;6.896;2023-05-10T12:30:22;4.93;;;1.40;;
72132;SDS011;60008;50.826;6.896;2023-05-10T12:33:13;3.10;;;1.20;;
72132;SDS011;60008;50.826;6.896;2023-05-10T12:35:59;1.90;;;0.90;;
72132;SDS011;60008;50.826;6.896;2023-05-10T12:38:44;1.63;;;1.00;;
72132;SDS011;60008;50.826;6.896;2023-05-10T12:41:32;1.90;;;1.17;;
72132;SDS011;60008;50.826;6.896;2023-05-10T12:44:18;2.92;;;1.20;;
72132;SDS011;60008;50.826;6.896;2023-05-10T12:47:03;3.45;;;1.10;;
72132;SDS011;60008;50.826;6.896;2023-05-10T12:49:48;3.35;;;1.00;;
72132;SDS011;60008;50.826;6.896;2023-05-10T12:52:33;2.00;;;1.20;;
72132;SDS011;60008;50.826;6.896;2023-05-10T12:55:18;1.67;;;0.97;;
72132;SDS011;60008;50.826;6.896;2023-05-10T12:58:03;1.63;;;1.00;;
72132;SDS011;60008;50.826;6.896;2023-05-10T13:00:48;1.90;;;1.13;;
72132;SDS011;60008;50.826;6.896;2023-05-10T13:03:33;1.65;;;1.00;;
72132;SDS011;60008;50.826;6.896;2023-05-10T13:06:18;2.90;;;1.20;;
72132;SDS011;60008;50.826;6.896;2023-05-10T13:09:03;2.47;;;0.97;;
72132;SDS011;60008;50.826;6.896;2023-05-10T13:11:49;3.00;;;0.93;;
72132;SDS011;60008;50.826;6.896;2023-05-10T13:14:34;1.42;;;0.80;;
72132;SDS011;60008;50.826;6.896;2023-05-10T13:17:19;2.13;;;0.90;;
72132;SDS011;60008;50.826;6.896;2023-05-10T13:20:04;2.25;;;1.10;;
72132;SDS011;60008;50.826;6.896;2023-05-10T13:22:49;2.97;;;1.00;;
72132;SDS011;60008;50.826;6.896;2023-05-10T13:25:36;2.15;;;1.08;;
72132;SDS011;60008;50.826;6.896;2023-05-10T13:28:20;1.85;;;0.77;;
72132;SDS011;60008;50.826;6.896;2023-05-10T13:31:05;2.38;;;1.00;;
72132;SDS011;60008;50.826;6.896;2023-05-10T13:33:52;2.08;;;0.90;;
72132;SDS011;60008;50.826;6.896;2023-05-10T13:36:37;3.07;;;1.00;;
72132;SDS011;60008;50.826;6.896;2023-05-10T13:39:23;2.67;;;0.80;;
72132;SDS011;60008;50.826;6.896;2023-05-10T13:42:08;1.90;;;0.70;;
72132;SDS011;60008;50.826;6.896;2023-05-10T13:44:53;1.73;;;0.88;;
72132;SDS011;60008;50.826;6.896;2023-05-10T13:47:38;2.05;;;0.80;;
72132;SDS011;60008;50.826;6.896;2023-05-10T13:50:22;2.50;;;1.00;;
72132;SDS011;60008;50.826;6.896;2023-05-10T13:53:08;1.70;;;0.80;;
72132;SDS011;60008;50.826;6.896;2023-05-10T13:55:52;2.55;;;0.90;;
72132;SDS011;60008;50.826;6.896;2023-05-10T13:58:37;1.50;;;0.90;;
72132;SDS011;60008;50.826;6.896;2023-05-10T14:01:22;1.45;;;0.90;;
72132;SDS011;60008;50.826;6.896;2023-05-10T14:04:08;1.70;;;0.90;;
72132;SDS011;60008;50.826;6.896;2023-05-10T14:06:55;3.17;;;1.10;;
72132;SDS011;60008;50.826;6.896;2023-05-10T14:09:40;2.00;;;1.10;;
72132;SDS011;60008;50.826;6.896;2023-05-10T14:12:25;2.22;;;1.00;;
72132;SDS011;60008;50.826;6.896;2023-05-10T14:15:10;2.10;;;1.00;;
72132;SDS011;60008;50.826;6.896;2023-05-10T14:17:56;2.13;;;1.07;;
72132;SDS011;60008;50.826;6.896;2023-05-10T14:20:41;3.13;;;1.42;;
72132;SDS011;60008;50.826;6.896;2023-05-10T14:23:26;1.70;;;1.00;;
72132;SDS011;60008;50.826;6.896;2023-05-10T14:26:12;1.75;;;1.08;;
72132;SDS011;60008;50.826;6.896;2023-05-10T14:28:58;1.60;;;1.00;;
72132;SDS011;60008;50.826;6.896;2023-05-10T14:31:43;1.90;;;1.27;;
72132;SDS011;60008;50.826;6.896;2023-05-10T14:34:28;1.90;;;1.30;;
72132;SDS011;60008;50.826;6.896;2023-05-10T14:37:14;4.07;;;1.30;;
72132;SDS011;60008;50.826;6.896;2023-05-10T14:39:59;2.30;;;1.30;;
72132;SDS011;60008;50.826;6.896;2023-05-10T14:42:44;3.45;;;1.50;;
72132;SDS011;60008;50.826;6.896;2023-05-10T14:45:29;2.80;;;1.37;;
72132;SDS011;60008;50.826;6.896;2023-05-10T14:48:14;3.85;;;1.67;;
72132;SDS011;60008;50.826;6.896;2023-05-10T14:51:02;5.47;;;1.70;;
72132;SDS011;60008;50.826;6.896;2023-05-10T14:53:48;2.45;;;1.40;;
72132;SDS011;60008;50.826;6.896;2023-05-10T14:56:33;1.90;;;1.30;;
72132;SDS011;60008;50.826;6.896;2023-05-10T14:59:19;7.80;;;2.33;;
72132;SDS011;60008;50.826;6.896;2023-05-10T15:02:05;6.63;;;1.40;;
72132;SDS011;60008;50.826;6.896;2023-05-10T15:04:51;2.47;;;1.30;;
72132;SDS011;60008;50.826;6.896;2023-05-10T15:07:36;2.90;;;1.45;;
72132;SDS011;60008;50.826;6.896;2023-05-10T15:10:21;2.92;;;1.45;;
72132;SDS011;60008;50.826;6.896;2023-05-10T15:13:06;2.50;;;1.43;;
72132;SDS011;60008;50.826;6.896;2023-05-10T15:15:51;3.00;;;1.40;;
72132;SDS011;60008;50.826;6.896;2023-05-10T15:18:36;2.13;;;1.30;;
72132;SDS011;60008;50.826;6.896;2023-05-10T15:21:21;2.45;;;1.20;;
72132;SDS011;60008;50.826;6.896;2023-05-10T15:24:06;1.75;;;1.02;;
72132;SDS011;60008;50.826;6.896;2023-05-10T15:26:51;1.70;;;0.90;;
72132;SDS011;60008;50.826;6.896;2023-05-10T15:29:36;2.20;;;1.05;;
72132;SDS011;60008;50.826;6.896;2023-05-10T15:32:21;4.47;;;1.30;;
72132;SDS011;60008;50.826;6.896;2023-05-10T15:35:09;2.38;;;1.20;;
72132;SDS011;60008;50.826;6.896;2023-05-10T15:37:55;2.35;;;1.20;;
72132;SDS011;60008;50.826;6.896;2023-05-10T15:40:40;2.37;;;1.20;;
72132;SDS011;60008;50.826;6.896;2023-05-10T15:43:25;3.17;;;1.17;;
72132;SDS011;60008;50.826;6.896;2023-05-10T15:46:09;5.38;;;1.60;;
72132;SDS011;60008;50.826;6.896;2023-05-10T15:48:56;2.65;;;1.27;;
72132;SDS011;60008;50.826;6.896;2023-05-10T15:51:43;3.33;;;1.50;;
72132;SDS011;60008;50.826;6.896;2023-05-10T15:54:28;4.30;;;2.23;;
72132;SDS011;60008;50.826;6.896;2023-05-10T15:57:12;2.50;;;1.20;;
72132;SDS011;60008;50.826;6.896;2023-05-10T15:59:58;3.58;;;1.50;;
72132;SDS011;60008;50.826;6.896;2023-05-10T16:02:42;2.97;;;1.50;;
72132;SDS011;60008;50.826;6.896;2023-05-10T16:05:27;2.55;;;1.33;;
72132;SDS011;60008;50.826;6.896;2023-05-10T16:08:16;4.40;;;1.43;;
72132;SDS011;60008;50.826;6.896;2023-05-10T16:11:01;3.20;;;1.60;;
72132;SDS011;60008;50.826;6.896;2023-05-10T16:13:46;2.92;;;1.45;;
72132;SDS011;60008;50.826;6.896;2023-05-10T16:16:31;2.90;;;1.40;;
72132;SDS011;60008;50.826;6.896;2023-05-10T16:19:16;3.40;;;1.38;;
72132;SDS011;60008;50.826;6.896;2023-05-10T16:22:02;3.23;;;1.40;;
72132;SDS011;60008;50.826;6.896;2023-05-10T16:24:47;3.35;;;1.40;;
72132;SDS011;60008;50.826;6.896;2023-05-10T16:27:32;3.47;;;1.42;;
72132;SDS011;60008;50.826;6.896;2023-05-10T16:30:17;4.25;;;1.58;;
72132;SDS011;60008;50.826;6.896;2023-05-10T16:33:02;4.38;;;1.70;;
72132;SDS011;60008;50.826;6.896;2023-05-10T16:35:47;2.67;;;1.07;;
72132;SDS011;60008;50.826;6.896;2023-05-10T16:38:32;4.88;;;1.65;;
72132;SDS011;60008;50.826;6.896;2023-05-10T16:41:17;3.28;;;1.15;;
72132;SDS011;60008;50.826;6.896;2023-05-10T16:44:03;2.35;;;1.13;;
72132;SDS011;60008;50.826;6.896;2023-05-10T16:46:48;3.63;;;1.10;;
72132;SDS011;60008;50.826;6.896;2023-05-10T16:49:34;4.57;;;1.10;;
72132;SDS011;60008;50.826;6.896;2023-05-10T16:52:19;2.42;;;1.17;;
72132;SDS011;60008;50.826;6.896;2023-05-10T16:55:05;2.92;;;1.20;;
72132;SDS011;60008;50.826;6.896;2023-05-10T16:57:50;5.45;;;1.42;;
72132;SDS011;60008;50.826;6.896;2023-05-10T17:00:35;3.95;;;1.40;;
72132;SDS011;60008;50.826;6.896;2023-05-10T17:03:20;3.73;;;1.50;;
72132;SDS011;60008;50.826;6.896;2023-05-10T17:06:05;3.78;;;1.33;;
72132;SDS011;60008;50.826;6.896;2023-05-10T17:08:51;3.88;;;1.48;;